Time;durP1;ratioP1;P1;durP2;ratioP2;P2;SDS_P1;SDS_P2;PMS_P1;PMS_P2;Temp;Humidity;BMP_temperature;BMP_pressure;BME280_temperature;BME280_humidity;BME280_pressure;Samples;Min_cycle;Max_cycle;Signal;HPM_P1;HPM_P2
2022/07/24 00:01:45;;;;;;;16.83;11.70;;;20.10;99.90;;;;;;4994422;28;20554;-76
2022/07/24 00:04:11;;;;;;;12.87;11.60;;;20.10;99.90;;;;;;4994466;28;20595;-76
2022/07/24 00:06:37;;;;;;;12.20;11.10;;;20.00;99.90;;;;;;4960566;28;20187;-74
2022/07/24 00:09:04;;;;;;;12.20;11.10;;;20.00;99.90;;;;;;4960365;28;20234;-75
2022/07/24 00:11:29;;;;;;;16.90;11.00;;;20.00;99.90;;;;;;4993946;28;20465;-75
2022/07/24 00:13:55;;;;;;;13.53;12.23;;;19.90;99.90;;;;;;4994321;28;20854;-74
2022/07/24 00:16:20;;;;;;;11.23;10.07;;;19.90;99.90;;;;;;4977074;28;20264;-75
2022/07/24 00:18:46;;;;;;;12.90;11.60;;;19.90;99.90;;;;;;4960638;28;20183;-76
2022/07/24 00:21:11;;;;;;;16.23;11.07;;;19.90;99.90;;;;;;4975596;28;20517;-76
2022/07/24 00:23:37;;;;;;;12.37;11.07;;;19.80;99.90;;;;;;4960706;28;20700;-74
2022/07/24 00:26:03;;;;;;;11.83;10.73;;;19.80;99.90;;;;;;4976671;28;20710;-75
2022/07/24 00:28:28;;;;;;;11.10;10.03;;;19.70;99.90;;;;;;4960252;28;20262;-75
2022/07/24 00:30:54;;;;;;;12.57;11.20;;;19.70;99.90;;;;;;4943399;28;20183;-73
2022/07/24 00:33:19;;;;;;;11.87;10.87;;;19.70;99.90;;;;;;4994336;28;20187;-75
2022/07/24 00:35:45;;;;;;;11.80;10.60;;;19.70;99.90;;;;;;4976184;28;20723;-76
2022/07/24 00:38:11;;;;;;;12.30;11.10;;;19.60;99.90;;;;;;4993055;28;20186;-75
2022/07/24 00:40:36;;;;;;;12.33;10.20;;;19.60;99.90;;;;;;4959696;28;20632;-75
2022/07/24 00:43:03;;;;;;;11.87;10.60;;;19.70;99.90;;;;;;4959421;28;20202;-75
2022/07/24 00:45:29;;;;;;;13.03;10.53;;;19.60;99.90;;;;;;4976547;28;20719;-75
2022/07/24 00:47:54;;;;;;;12.00;10.97;;;19.60;99.90;;;;;;4976191;28;20454;-74
2022/07/24 00:50:20;;;;;;;10.50;9.53;;;19.60;99.90;;;;;;4976070;28;20186;-75
2022/07/24 00:52:46;;;;;;;12.27;11.00;;;19.60;99.90;;;;;;4975415;28;20218;-76
2022/07/24 00:55:12;;;;;;;11.90;10.90;;;19.60;99.90;;;;;;4976147;28;20186;-75
2022/07/24 00:57:38;;;;;;;11.00;9.57;;;19.60;99.90;;;;;;4993483;28;20239;-75
2022/07/24 02:30:51;;;;;;;12.80;10.60;;;18.90;99.90;;;;;;6040314;23;21212;-73
2022/07/24 02:33:16;;;;;;;11.67;10.63;;;18.80;99.90;;;;;;4970239;28;20415;-75
2022/07/24 02:35:42;;;;;;;12.37;10.50;;;18.80;99.90;;;;;;4961557;28;20434;-73
2022/07/24 02:38:08;;;;;;;11.30;10.40;;;18.80;99.90;;;;;;4972077;28;20180;-75
2022/07/24 02:40:34;;;;;;;12.83;11.63;;;18.70;99.90;;;;;;4970975;28;20239;-72
2022/07/24 02:42:59;;;;;;;11.57;10.50;;;18.70;99.90;;;;;;4971746;28;20419;-75
2022/07/24 02:45:25;;;;;;;14.00;11.43;;;18.60;99.90;;;;;;4971278;28;20506;-75
2022/07/24 02:47:53;;;;;;;12.47;11.03;;;18.60;99.90;;;;;;4971073;28;20176;-75
2022/07/24 02:50:20;;;;;;;11.70;10.33;;;18.50;99.90;;;;;;4970407;28;20737;-75
2022/07/24 02:52:46;;;;;;;12.90;11.70;;;18.50;99.90;;;;;;4971093;28;20427;-74
2022/07/24 02:55:12;;;;;;;14.47;10.90;;;18.50;99.90;;;;;;4971827;28;20415;-75
2022/07/24 02:57:37;;;;;;;11.30;10.30;;;18.50;99.90;;;;;;4971424;28;20483;-74
2022/07/24 03:00:07;;;;;;;12.67;10.73;;;18.50;99.90;;;;;;4971088;28;20172;-74
2022/07/24 03:02:33;;;;;;;15.63;10.70;;;18.40;99.90;;;;;;4970057;28;20219;-73
2022/07/24 03:04:59;;;;;;;11.90;10.70;;;18.40;99.90;;;;;;4971718;28;20454;-75
2022/07/24 03:07:24;;;;;;;15.80;12.53;;;18.40;99.90;;;;;;4975297;28;20411;-75
2022/07/24 03:09:50;;;;;;;12.60;11.33;;;18.40;99.90;;;;;;4975459;28;20180;-74
2022/07/24 03:12:15;;;;;;;10.07;9.07;;;18.30;99.90;;;;;;4974226;28;20611;-74
2022/07/24 03:14:41;;;;;;;15.10;12.00;;;18.30;99.90;;;;;;4975267;28;20651;-74
2022/07/24 03:17:06;;;;;;;12.87;11.57;;;18.30;99.90;;;;;;4975514;28;20616;-74
2022/07/24 03:19:32;;;;;;;13.83;12.37;;;18.20;99.90;;;;;;4975237;28;20947;-75
2022/07/24 03:21:57;;;;;;;12.40;11.27;;;18.20;99.90;;;;;;4974905;28;20202;-73
2022/07/24 03:24:23;;;;;;;12.33;11.10;;;18.10;99.90;;;;;;4974856;28;20219;-75
2022/07/24 03:26:48;;;;;;;13.37;12.07;;;18.10;99.90;;;;;;4975402;28;20695;-74
2022/07/24 03:29:14;;;;;;;12.93;11.13;;;18.00;99.90;;;;;;4974802;28;20180;-72
2022/07/24 03:31:39;;;;;;;13.33;11.30;;;18.00;99.90;;;;;;4973885;28;20688;-76
2022/07/24 03:34:06;;;;;;;12.40;11.20;;;17.90;99.90;;;;;;4975275;28;20260;-74
2022/07/24 03:36:32;;;;;;;13.80;12.50;;;17.90;99.90;;;;;;4974385;28;20199;-75
2022/07/24 03:38:57;;;;;;;12.97;11.47;;;17.90;99.90;;;;;;4975141;28;20420;-74
2022/07/24 03:41:23;;;;;;;19.10;11.83;;;17.90;99.90;;;;;;4974141;28;20435;-74
2022/07/24 03:43:48;;;;;;;14.83;13.20;;;17.90;99.90;;;;;;4974822;28;20231;-73
2022/07/24 03:46:14;;;;;;;14.10;12.60;;;17.90;99.90;;;;;;4974252;28;20179;-70
2022/07/24 03:48:39;;;;;;;13.47;12.07;;;17.90;99.90;;;;;;4974980;28;20258;-73
2022/07/24 03:51:05;;;;;;;14.17;12.87;;;17.90;99.90;;;;;;4974138;28;20295;-74
2022/07/24 03:53:30;;;;;;;12.87;11.10;;;17.90;99.90;;;;;;4974731;28;20579;-74
2022/07/24 03:55:56;;;;;;;12.87;11.50;;;17.90;99.90;;;;;;4974215;28;20180;-75
2022/07/24 03:58:21;;;;;;;13.63;12.23;;;17.90;99.90;;;;;;4974733;28;20178;-75
2022/07/24 04:00:47;;;;;;;15.67;12.83;;;17.90;99.90;;;;;;4974447;28;20185;-75
2022/07/24 04:03:12;;;;;;;13.17;11.73;;;17.90;99.90;;;;;;4974739;28;20570;-74
2022/07/24 04:05:38;;;;;;;12.40;11.30;;;17.90;99.90;;;;;;4974987;28;20176;-75
2022/07/24 04:08:04;;;;;;;13.00;11.70;;;17.90;99.90;;;;;;4974677;28;20180;-74
2022/07/24 04:10:30;;;;;;;12.37;11.17;;;17.90;99.90;;;;;;4973369;28;20187;-74
2022/07/24 04:12:55;;;;;;;13.60;11.70;;;17.80;99.90;;;;;;4973833;28;20530;-72
2022/07/24 04:15:20;;;;;;;12.70;11.50;;;17.80;99.90;;;;;;4974290;28;20202;-74
2022/07/24 04:17:46;;;;;;;12.93;11.63;;;17.80;99.90;;;;;;4973066;28;20199;-74
2022/07/24 04:20:12;;;;;;;12.67;11.57;;;17.80;99.90;;;;;;4974238;28;20172;-74
2022/07/24 04:22:38;;;;;;;14.90;13.40;;;17.80;99.90;;;;;;4972882;28;20199;-74
2022/07/24 04:25:03;;;;;;;14.73;12.80;;;17.90;99.90;;;;;;4974226;28;20179;-74
2022/07/24 04:27:29;;;;;;;13.37;12.17;;;17.90;99.90;;;;;;4973878;28;20180;-75
2022/07/24 04:29:55;;;;;;;14.07;12.50;;;17.90;99.90;;;;;;4973857;28;20784;-72
2022/07/24 04:32:20;;;;;;;14.70;12.47;;;18.00;99.90;;;;;;4972869;28;20235;-74
2022/07/24 04:34:45;;;;;;;13.90;12.50;;;18.00;99.90;;;;;;4974047;28;20176;-75
2022/07/24 04:37:11;;;;;;;13.43;12.10;;;18.10;99.90;;;;;;4974108;28;20208;-74
2022/07/24 04:39:36;;;;;;;13.70;12.30;;;18.10;99.90;;;;;;4973433;28;20540;-74
2022/07/24 04:42:02;;;;;;;13.80;12.20;;;18.10;99.90;;;;;;4972386;28;20223;-75
2022/07/24 04:44:28;;;;;;;19.17;12.40;;;18.20;99.90;;;;;;4973664;28;20187;-74
2022/07/24 04:46:53;;;;;;;14.20;12.77;;;18.20;99.90;;;;;;4973611;28;20164;-71
2022/07/24 04:49:19;;;;;;;14.87;13.00;;;18.30;99.90;;;;;;4969726;28;20259;-74
2022/07/24 04:51:44;;;;;;;14.00;12.37;;;18.30;99.90;;;;;;4962385;28;20209;-74
2022/07/24 04:54:10;;;;;;;13.40;11.50;;;18.30;99.90;;;;;;4954440;29;20181;-73
2022/07/24 04:56:35;;;;;;;11.50;10.30;;;18.40;99.90;;;;;;4954221;29;20228;-74
2022/07/24 04:59:01;;;;;;;13.03;10.43;;;18.50;99.90;;;;;;4954455;29;20693;-73
2022/07/24 05:01:28;;;;;;;12.77;11.53;;;18.50;99.90;;;;;;4953205;28;20199;-74
2022/07/24 05:03:56;;;;;;;12.63;11.33;;;18.60;99.90;;;;;;4954546;29;20408;-72
2022/07/24 05:06:22;;;;;;;12.70;10.97;;;18.70;99.90;;;;;;4953490;29;20471;-75
2022/07/24 05:08:48;;;;;;;11.30;10.40;;;18.80;99.90;;;;;;4954756;29;20451;-75
2022/07/24 05:11:13;;;;;;;15.10;10.60;;;18.90;99.90;;;;;;4953538;28;20479;-71
2022/07/24 05:13:39;;;;;;;12.50;11.30;;;19.00;99.90;;;;;;4954024;29;20181;-74
2022/07/24 05:16:04;;;;;;;13.30;11.90;;;19.10;99.90;;;;;;4954140;29;20212;-75
2022/07/24 05:18:30;;;;;;;12.77;11.50;;;19.20;99.90;;;;;;4954209;29;20216;-74
2022/07/24 05:20:56;;;;;;;15.20;10.83;;;19.50;99.90;;;;;;4936684;28;20208;-73
2022/07/24 05:23:21;;;;;;;17.27;12.10;;;19.90;99.90;;;;;;4954311;29;20256;-75
2022/07/24 05:25:47;;;;;;;12.77;11.67;;;20.30;99.90;;;;;;4954529;29;20180;-76
2022/07/24 05:28:12;;;;;;;13.90;12.50;;;20.80;99.90;;;;;;4954245;28;20272;-74
2022/07/24 05:30:38;;;;;;;11.13;10.13;;;21.20;99.90;;;;;;4953412;28;20216;-75
2022/07/24 05:33:03;;;;;;;12.47;11.30;;;21.60;99.90;;;;;;4955888;28;20243;-73
2022/07/24 05:35:29;;;;;;;12.77;11.53;;;22.00;99.90;;;;;;4966996;28;20176;-74
2022/07/24 05:37:55;;;;;;;12.70;11.50;;;22.40;99.90;;;;;;4972541;28;20259;-72
2022/07/24 05:40:21;;;;;;;14.77;13.30;;;22.70;99.90;;;;;;4971630;28;20547;-74
2022/07/24 05:42:46;;;;;;;17.77;14.10;;;23.10;99.90;;;;;;4972031;28;20578;-74
2022/07/24 05:45:12;;;;;;;13.97;12.50;;;23.50;99.90;;;;;;4972904;28;21228;-75
2022/07/24 05:47:38;;;;;;;13.40;12.23;;;23.90;99.90;;;;;;4972389;28;20208;-73
2022/07/24 05:50:09;;;;;;;17.50;14.03;;;24.10;99.90;;;;;;4972912;28;20176;-72
2022/07/24 05:52:34;;;;;;;14.50;12.90;;;24.40;99.90;;;;;;4971584;28;20455;-70
2022/07/24 05:55:00;;;;;;;15.37;13.87;;;24.40;99.90;;;;;;4972642;28;20886;-72
2022/07/24 05:57:25;;;;;;;14.83;13.23;;;24.40;99.90;;;;;;4972522;28;20208;-71
2022/07/24 05:59:51;;;;;;;15.00;13.60;;;24.60;99.90;;;;;;4972468;28;20176;-73
2022/07/24 06:02:16;;;;;;;14.57;13.10;;;24.90;99.90;;;;;;4971126;28;20500;-72
2022/07/24 06:04:43;;;;;;;15.00;13.70;;;25.10;99.90;;;;;;4972734;28;20170;-72
2022/07/24 06:07:09;;;;;;;14.10;12.77;;;25.30;99.90;;;;;;4972613;28;20176;-72
2022/07/24 06:09:38;;;;;;;15.70;13.40;;;25.40;99.90;;;;;;4971797;28;20740;-71
2022/07/24 06:12:04;;;;;;;14.17;12.90;;;25.60;99.90;;;;;;4972259;28;20530;-71
2022/07/24 06:14:31;;;;;;;14.53;12.97;;;25.80;99.90;;;;;;4971846;28;20866;-72
2022/07/24 06:16:57;;;;;;;15.57;13.93;;;26.00;99.90;;;;;;4972552;28;20990;-71
2022/07/24 06:19:23;;;;;;;14.17;12.83;;;26.20;99.90;;;;;;4972407;28;20416;-72
2022/07/24 06:21:48;;;;;;;14.50;13.10;;;26.20;99.90;;;;;;4971579;28;20192;-72
2022/07/24 06:24:14;;;;;;;15.73;14.33;;;26.40;99.90;;;;;;4971230;28;20179;-72
2022/07/24 06:26:39;;;;;;;12.73;11.53;;;26.50;99.90;;;;;;4972043;28;20525;-73
2022/07/24 06:29:05;;;;;;;13.80;12.50;;;26.80;99.90;;;;;;4954709;28;20260;-72
2022/07/24 06:31:31;;;;;;;14.37;11.40;;;27.10;99.90;;;;;;4970651;28;20247;-74
2022/07/24 06:33:56;;;;;;;13.27;11.90;;;27.30;99.90;;;;;;4971714;28;20180;-74
2022/07/24 06:36:22;;;;;;;12.77;10.90;;;27.40;99.90;;;;;;4971678;28;20211;-73
2022/07/24 06:38:47;;;;;;;12.17;11.07;;;27.80;99.90;;;;;;4971478;28;20567;-73
2022/07/24 06:41:13;;;;;;;11.80;10.73;;;28.00;99.90;;;;;;4969660;28;20688;-71
2022/07/24 06:43:39;;;;;;;10.37;9.30;;;28.10;99.90;;;;;;4971595;28;20196;-74
2022/07/24 06:46:05;;;;;;;11.83;10.63;;;28.20;99.90;;;;;;4971934;28;20862;-74
2022/07/24 06:48:31;;;;;;;11.73;10.73;;;28.40;99.90;;;;;;4971433;28;20172;-74
2022/07/24 06:50:56;;;;;;;11.53;10.53;;;28.50;99.90;;;;;;4970494;28;20431;-73
2022/07/24 06:53:22;;;;;;;11.73;10.73;;;28.60;99.90;;;;;;4971246;28;20187;-73
2022/07/24 06:55:47;;;;;;;11.47;10.40;;;28.80;99.90;;;;;;4971877;28;20687;-73
2022/07/24 06:58:13;;;;;;;12.50;11.40;;;28.90;99.90;;;;;;4971468;28;20533;-71
2022/07/24 07:00:39;;;;;;;11.40;10.20;;;29.10;99.90;;;;;;4970769;28;20187;-74
2022/07/24 07:03:05;;;;;;;12.60;11.33;;;29.30;99.90;;;;;;4971869;28;20596;-75
2022/07/24 07:05:31;;;;;;;11.37;10.37;;;29.30;99.90;;;;;;4971025;28;20172;-73
2022/07/24 07:07:56;;;;;;;12.07;9.33;;;29.50;99.90;;;;;;4972225;28;20172;-73
2022/07/24 07:10:23;;;;;;;10.93;9.90;;;29.60;99.90;;;;;;4981059;28;20171;-71
2022/07/24 07:12:48;;;;;;;11.60;10.60;;;29.70;99.90;;;;;;4981255;28;20702;-73
2022/07/24 07:15:14;;;;;;;11.63;10.53;;;30.00;99.90;;;;;;4980200;28;20439;-73
2022/07/24 07:17:41;;;;;;;13.77;11.30;;;29.80;99.90;;;;;;4971809;28;20211;-73
2022/07/24 07:20:08;;;;;;;11.30;10.40;;;29.80;99.90;;;;;;4981737;28;20172;-74
2022/07/24 07:22:34;;;;;;;11.30;10.30;;;30.00;99.90;;;;;;4976469;28;20928;-72
2022/07/24 07:24:59;;;;;;;10.70;9.90;;;30.10;99.90;;;;;;4981137;28;20417;-74
2022/07/24 07:27:25;;;;;;;11.53;10.43;;;30.60;99.90;;;;;;4980872;28;20668;-74
2022/07/24 07:29:50;;;;;;;10.67;9.80;;;31.00;99.90;;;;;;4978144;28;20523;-74
2022/07/24 07:32:16;;;;;;;10.20;9.40;;;31.10;99.90;;;;;;4988091;28;20273;-73
2022/07/24 07:34:41;;;;;;;10.97;9.97;;;31.50;99.90;;;;;;4990750;28;20178;-74
2022/07/24 07:37:07;;;;;;;14.60;13.27;;;31.70;99.90;;;;;;4990658;28;20668;-74
2022/07/24 07:39:33;;;;;;;9.20;8.50;;;31.70;99.90;;;;;;4990273;28;20186;-73
2022/07/24 07:41:58;;;;;;;9.90;9.00;;;31.80;99.90;;;;;;4989937;28;20271;-74
2022/07/24 07:44:24;;;;;;;10.10;9.13;;;31.40;99.90;;;;;;4989682;28;20176;-73
2022/07/24 07:46:49;;;;;;;10.63;9.53;;;31.50;99.90;;;;;;4990644;28;20175;-73
2022/07/24 07:49:15;;;;;;;8.70;8.10;;;31.60;99.90;;;;;;4989969;28;20259;-73
2022/07/24 07:51:40;;;;;;;10.60;9.70;;;31.60;99.90;;;;;;4990521;28;20187;-75
2022/07/24 07:54:06;;;;;;;9.47;8.77;;;31.40;99.90;;;;;;4994223;28;20183;-74
2022/07/24 07:56:32;;;;;;;10.30;9.30;;;30.70;99.90;;;;;;4993939;28;20288;-73
2022/07/24 07:58:58;;;;;;;9.20;8.50;;;30.60;99.90;;;;;;4993364;28;20260;-73
2022/07/24 08:01:23;;;;;;;10.13;9.23;;;30.60;99.90;;;;;;4993216;28;20537;-73
2022/07/24 08:03:49;;;;;;;13.40;9.27;;;30.90;99.90;;;;;;4993984;28;20167;-74
2022/07/24 08:06:15;;;;;;;10.10;9.10;;;31.10;99.90;;;;;;4993610;28;20176;-73
2022/07/24 08:08:40;;;;;;;13.33;9.30;;;31.00;99.90;;;;;;4993308;28;20258;-70
2022/07/24 08:11:06;;;;;;;8.90;8.03;;;31.40;99.90;;;;;;4993162;28;20197;-71
2022/07/24 08:13:31;;;;;;;9.97;9.00;;;31.40;99.90;;;;;;4993288;28;20230;-71
2022/07/24 08:15:57;;;;;;;10.63;9.53;;;31.50;99.90;;;;;;4993886;28;20182;-71
2022/07/24 08:18:22;;;;;;;11.40;9.67;;;31.60;99.90;;;;;;4993525;28;20172;-71
2022/07/24 08:20:48;;;;;;;10.30;9.50;;;31.40;99.90;;;;;;4975775;28;20171;-72
2022/07/24 08:23:14;;;;;;;10.00;9.00;;;31.40;99.90;;;;;;4993690;28;20225;-69
2022/07/24 08:25:39;;;;;;;9.80;8.90;;;31.60;99.90;;;;;;4993817;28;20203;-71
2022/07/24 08:28:05;;;;;;;9.33;8.53;;;31.80;99.90;;;;;;4993174;28;20262;-71
2022/07/24 08:30:30;;;;;;;9.10;8.30;;;32.20;99.90;;;;;;4992574;28;20182;-72
2022/07/24 08:32:56;;;;;;;9.47;8.70;;;32.40;99.90;;;;;;4992366;28;20218;-75
2022/07/24 08:35:23;;;;;;;10.20;9.30;;;32.30;99.90;;;;;;4993406;28;20198;-74
2022/07/24 08:37:48;;;;;;;10.20;8.90;;;32.60;99.90;;;;;;4993266;28;20203;-73
2022/07/24 08:40:15;;;;;;;9.47;8.60;;;32.70;99.90;;;;;;4993107;28;20969;-74
2022/07/24 08:42:40;;;;;;;10.43;9.50;;;33.10;99.90;;;;;;4991576;28;20195;-75
2022/07/24 08:45:07;;;;;;;10.83;9.90;;;33.20;99.90;;;;;;4993550;28;20774;-75
2022/07/24 08:47:33;;;;;;;9.87;8.90;;;33.20;99.90;;;;;;4992648;28;20245;-76
2022/07/24 08:50:01;;;;;;;10.03;9.13;;;33.20;99.90;;;;;;4993172;28;20411;-75
2022/07/24 08:52:27;;;;;;;10.33;8.90;;;33.30;99.90;;;;;;4974829;28;20206;-75
2022/07/24 08:54:53;;;;;;;13.30;9.10;;;33.10;99.90;;;;;;4993010;28;20422;-75
2022/07/24 08:57:19;;;;;;;8.10;7.50;;;33.30;99.90;;;;;;4993009;28;20217;-75
2022/07/24 08:59:45;;;;;;;9.70;8.90;;;33.10;99.90;;;;;;4993056;28;20847;-74
2022/07/24 09:02:11;;;;;;;8.93;8.13;;;33.40;99.90;;;;;;4992175;28;20426;-75
2022/07/24 09:04:38;;;;;;;9.17;8.40;;;33.70;99.90;;;;;;4991701;28;20242;-75
2022/07/24 09:07:05;;;;;;;9.53;8.50;;;33.10;99.90;;;;;;4992999;28;20176;-75
2022/07/24 09:09:32;;;;;;;9.70;8.90;;;33.70;99.90;;;;;;4992533;28;20414;-76
2022/07/24 09:12:15;;;;;;;9.37;8.53;;;34.10;99.90;;;;;;4991933;28;20438;-75
2022/07/24 09:14:44;;;;;;;10.10;8.90;;;34.50;99.90;;;;;;4993315;28;20509;-77
2022/07/24 09:17:21;;;;;;;9.50;8.70;;;34.70;99.90;;;;;;4993095;28;20450;-77
2022/07/24 09:19:58;;;;;;;9.33;8.53;;;34.60;99.90;;;;;;4993075;28;20833;-75
2022/07/24 09:22:44;;;;;;;12.93;7.90;;;35.10;99.90;;;;;;4974961;28;20521;-75
2022/07/24 09:25:25;;;;;;;9.63;8.43;;;35.30;99.80;;;;;;4992491;28;20433;-76
2022/07/24 09:27:53;;;;;;;9.40;8.60;;;35.30;98.80;;;;;;4992547;28;20457;-77
2022/07/24 09:30:32;;;;;;;11.30;7.40;;;35.90;98.40;;;;;;4992741;28;20445;-76
2022/07/24 09:33:04;;;;;;;8.20;7.53;;;35.70;97.40;;;;;;4992676;28;20464;-74
2022/07/24 09:35:33;;;;;;;8.60;7.77;;;35.10;99.20;;;;;;4992936;28;20763;-77
2022/07/24 09:37:59;;;;;;;8.77;8.17;;;34.70;98.40;;;;;;4992482;28;20528;-76
2022/07/24 09:40:31;;;;;;;9.17;8.30;;;33.50;98.50;;;;;;4991447;28;20433;-76
2022/07/24 09:43:12;;;;;;;8.80;7.60;;;32.60;99.60;;;;;;4992196;28;20781;-76
2022/07/24 09:45:53;;;;;;;9.20;8.43;;;31.90;99.90;;;;;;4992211;28;20418;-77
2022/07/24 09:48:22;;;;;;;8.90;8.20;;;31.50;99.90;;;;;;4992112;28;20493;-77
2022/07/24 09:50:53;;;;;;;9.67;9.00;;;31.20;99.90;;;;;;4990884;28;20426;-77
2022/07/24 09:53:20;;;;;;;9.37;8.60;;;30.90;99.90;;;;;;4992184;28;20800;-77
2022/07/24 09:56:06;;;;;;;9.10;8.30;;;30.60;99.90;;;;;;4992166;28;20923;-77
2022/07/24 09:58:33;;;;;;;10.27;9.30;;;30.50;99.90;;;;;;4991849;28;20415;-76
2022/07/24 10:01:00;;;;;;;9.90;9.00;;;30.70;99.90;;;;;;4991256;28;20850;-76
2022/07/24 10:03:31;;;;;;;9.40;8.60;;;30.90;99.90;;;;;;4991792;28;20407;-76
2022/07/24 10:06:00;;;;;;;8.43;7.73;;;31.30;99.90;;;;;;4991456;28;20431;-76
2022/07/24 10:08:27;;;;;;;9.27;8.10;;;32.40;99.90;;;;;;4991606;28;20453;-76
2022/07/24 10:10:53;;;;;;;9.30;8.40;;;33.50;99.90;;;;;;4990898;28;20468;-77
2022/07/24 10:13:18;;;;;;;10.00;8.27;;;34.10;99.90;;;;;;4991786;28;20406;-79
2022/07/24 10:16:12;;;;;;;9.57;8.70;;;34.60;99.90;;;;;;4992150;28;20802;-77
2022/07/24 10:18:52;;;;;;;9.43;8.53;;;35.20;98.40;;;;;;4992006;28;20193;-75
2022/07/24 10:21:20;;;;;;;12.60;8.73;;;35.60;98.30;;;;;;4990395;28;20517;-77
2022/07/24 10:24:03;;;;;;;8.87;8.10;;;35.40;96.80;;;;;;4992003;28;20414;-77
2022/07/24 10:26:33;;;;;;;9.90;9.00;;;35.20;96.00;;;;;;4992113;28;20438;-76
2022/07/24 10:29:15;;;;;;;9.13;8.27;;;34.90;96.80;;;;;;4991774;28;20407;-77
2022/07/24 10:31:49;;;;;;;7.70;7.20;;;35.40;96.70;;;;;;4990859;28;20449;-77
2022/07/24 10:34:24;;;;;;;9.47;8.77;;;35.60;96.10;;;;;;4992246;28;20410;-76
2022/07/24 10:37:20;;;;;;;8.03;7.43;;;35.90;96.10;;;;;;4991663;28;20453;-78
2022/07/24 10:39:54;;;;;;;8.40;7.80;;;35.70;95.20;;;;;;4991908;28;20510;-77
2022/07/24 10:42:20;;;;;;;9.20;8.30;;;35.30;95.60;;;;;;4990861;28;20449;-78
2022/07/24 10:45:17;;;;;;;11.93;9.37;;;34.80;95.20;;;;;;4992150;28;20850;-77
2022/07/24 10:47:42;;;;;;;9.27;8.47;;;34.20;95.70;;;;;;4992157;28;20160;-76
2022/07/24 10:50:08;;;;;;;9.10;8.17;;;33.60;96.90;;;;;;4991466;28;20432;-76
2022/07/24 10:52:34;;;;;;;9.13;8.10;;;33.10;96.20;;;;;;4990592;28;20683;-74
2022/07/24 10:55:31;;;;;;;9.73;8.83;;;32.50;96.90;;;;;;4991738;28;20258;-76
2022/07/24 10:58:02;;;;;;;9.03;8.33;;;32.20;97.30;;;;;;4991540;28;20206;-75
2022/07/24 11:00:36;;;;;;;10.07;8.30;;;31.80;97.30;;;;;;4972397;28;20438;-75
2022/07/24 11:03:22;;;;;;;8.63;8.03;;;31.70;99.40;;;;;;4991944;28;20403;-77
2022/07/24 11:06:10;;;;;;;9.27;8.40;;;31.70;99.20;;;;;;4991935;28;20427;-76
2022/07/24 11:08:40;;;;;;;9.63;7.50;;;32.10;98.90;;;;;;4991695;28;20790;-76
2022/07/24 11:11:08;;;;;;;9.50;8.60;;;32.10;98.40;;;;;;4991139;28;20466;-75
2022/07/24 11:13:33;;;;;;;8.57;7.97;;;32.30;99.10;;;;;;4991338;28;20907;-75
2022/07/24 11:16:18;;;;;;;8.23;7.50;;;32.80;98.20;;;;;;4992075;28;20414;-76
2022/07/24 11:18:50;;;;;;;8.30;7.60;;;33.30;98.70;;;;;;4992161;28;20164;-76
2022/07/24 11:21:40;;;;;;;9.30;8.50;;;34.00;99.70;;;;;;4973313;28;20434;-77
2022/07/24 11:24:24;;;;;;;8.07;7.43;;;34.70;98.30;;;;;;4991395;28;20410;-77
2022/07/24 11:26:51;;;;;;;9.53;7.37;;;35.00;96.60;;;;;;4992633;28;20449;-77
2022/07/24 11:29:32;;;;;;;8.07;7.47;;;35.10;95.50;;;;;;4995048;28;20915;-76
2022/07/24 11:32:17;;;;;;;8.37;7.60;;;34.90;95.00;;;;;;4994896;28;20453;-77
2022/07/24 11:34:51;;;;;;;8.47;7.70;;;34.00;95.40;;;;;;4977570;28;20505;-75
2022/07/24 11:37:17;;;;;;;8.80;8.10;;;34.20;96.40;;;;;;4995271;28;20971;-76
2022/07/24 11:39:45;;;;;;;9.83;8.07;;;34.50;95.00;;;;;;4995964;28;20829;-75
2022/07/24 11:42:13;;;;;;;8.40;7.80;;;34.70;95.10;;;;;;4994979;28;21002;-77
2022/07/24 11:44:41;;;;;;;9.60;8.80;;;34.70;94.40;;;;;;4995764;28;20410;-75
2022/07/24 11:47:17;;;;;;;8.37;7.57;;;34.50;93.80;;;;;;4995605;28;20418;-76
2022/07/24 11:49:54;;;;;;;8.90;8.20;;;34.60;94.70;;;;;;4995778;28;20490;-75
2022/07/24 11:52:32;;;;;;;7.83;7.23;;;34.40;93.70;;;;;;4994985;28;20437;-76
2022/07/24 11:55:13;;;;;;;9.07;7.93;;;34.00;94.30;;;;;;4995734;28;20899;-75
2022/07/24 11:57:41;;;;;;;7.60;7.00;;;33.60;93.90;;;;;;4995134;28;20834;-76
2022/07/24 12:00:19;;;;;;;7.97;7.30;;;33.30;94.50;;;;;;4995614;28;20517;-75
2022/07/24 12:02:46;;;;;;;8.27;7.57;;;33.40;94.50;;;;;;4977354;28;20442;-75
2022/07/24 12:05:13;;;;;;;11.93;8.20;;;33.40;94.50;;;;;;4995265;28;20453;-76
2022/07/24 12:07:38;;;;;;;8.37;7.77;;;33.30;93.80;;;;;;4995357;28;20469;-75
2022/07/24 12:10:04;;;;;;;8.87;8.17;;;33.20;94.50;;;;;;4995016;28;20414;-75
2022/07/24 12:12:35;;;;;;;9.00;8.27;;;33.20;93.80;;;;;;4993882;28;20672;-76
2022/07/24 12:15:13;;;;;;;8.03;7.33;;;33.30;94.30;;;;;;4995374;28;20477;-76
2022/07/24 12:18:05;;;;;;;8.90;8.10;;;33.30;95.00;;;;;;4994820;28;20827;-75
2022/07/24 12:20:34;;;;;;;8.27;6.97;;;33.40;94.80;;;;;;4862346;28;20602;-76
2022/07/24 12:23:01;;;;;;;9.57;8.33;;;33.30;94.30;;;;;;4885890;28;21123;-76
2022/07/24 12:25:29;;;;;;;9.17;7.63;;;32.90;94.60;;;;;;4873089;28;20796;-78
2022/07/24 12:28:21;;;;;;;8.17;7.47;;;32.60;95.40;;;;;;4882213;28;21053;-78
2022/07/24 12:30:53;;;;;;;8.60;7.87;;;32.50;96.20;;;;;;4875527;28;20689;-77
2022/07/24 12:33:21;;;;;;;7.47;6.87;;;32.40;96.10;;;;;;4871602;28;20807;-77
2022/07/24 12:35:56;;;;;;;8.43;7.83;;;32.40;96.00;;;;;;4871727;28;20859;-77
2022/07/24 12:38:32;;;;;;;8.53;7.90;;;32.20;95.70;;;;;;4868345;28;21034;-77
2022/07/24 12:41:10;;;;;;;8.80;8.10;;;32.20;95.40;;;;;;4871944;28;20767;-77
2022/07/24 12:43:55;;;;;;;7.87;7.37;;;32.50;95.30;;;;;;4868211;28;20752;-76
2022/07/24 12:46:32;;;;;;;8.63;7.80;;;32.70;94.40;;;;;;4872114;28;20844;-77
2022/07/24 12:49:03;;;;;;;8.47;7.77;;;32.80;95.70;;;;;;4871535;28;20824;-77
2022/07/24 12:51:56;;;;;;;9.10;8.40;;;32.60;95.20;;;;;;4871683;28;20790;-76
2022/07/24 12:54:29;;;;;;;9.10;8.20;;;32.30;94.90;;;;;;4870741;28;20911;-78
2022/07/24 12:56:59;;;;;;;9.23;7.93;;;32.10;95.30;;;;;;4869671;28;20819;-77
2022/07/24 12:59:36;;;;;;;9.57;8.70;;;31.80;96.10;;;;;;4869763;28;20781;-77
2022/07/24 13:02:03;;;;;;;11.83;8.83;;;31.60;96.50;;;;;;4869905;28;20754;-77
2022/07/24 13:04:33;;;;;;;16.20;7.87;;;31.40;95.70;;;;;;4870147;28;20754;-76
2022/07/24 13:07:00;;;;;;;8.53;7.93;;;31.30;96.00;;;;;;4869621;28;20604;-75
2022/07/24 13:09:28;;;;;;;10.53;8.27;;;31.50;95.80;;;;;;4886865;28;21287;-75
2022/07/24 13:11:55;;;;;;;8.73;7.93;;;31.70;95.30;;;;;;4870525;28;20828;-76
2022/07/24 13:14:23;;;;;;;7.67;6.97;;;32.00;95.80;;;;;;4868055;28;20733;-77
2022/07/24 13:16:51;;;;;;;9.60;7.63;;;32.00;95.70;;;;;;4867978;28;20828;-76
2022/07/24 13:19:19;;;;;;;8.60;7.10;;;31.90;95.00;;;;;;4874789;28;20811;-76
2022/07/24 13:21:46;;;;;;;9.17;8.57;;;32.10;96.00;;;;;;4869224;28;20763;-76
2022/07/24 13:24:14;;;;;;;8.80;8.10;;;32.10;95.90;;;;;;4884569;28;20893;-78
2022/07/24 13:26:42;;;;;;;8.60;7.97;;;32.20;94.70;;;;;;4868574;28;20811;-78
2022/07/24 13:29:08;;;;;;;8.17;7.50;;;32.20;94.90;;;;;;4872444;28;20739;-83
2022/07/24 13:31:35;;;;;;;8.73;8.03;;;32.30;95.00;;;;;;4873632;28;21046;-77
2022/07/24 13:34:01;;;;;;;9.97;8.03;;;32.30;96.40;;;;;;4867779;28;20933;-77
2022/07/24 13:36:27;;;;;;;9.53;8.77;;;32.40;94.30;;;;;;4883836;28;20632;-77
2022/07/24 13:38:53;;;;;;;8.70;8.10;;;32.40;94.60;;;;;;4870240;28;20526;-78
2022/07/24 13:41:21;;;;;;;9.53;8.73;;;32.30;94.20;;;;;;4868184;28;20788;-77
2022/07/24 13:43:50;;;;;;;8.60;7.90;;;32.00;94.10;;;;;;4866445;28;20809;-78
2022/07/24 13:46:16;;;;;;;9.80;8.90;;;31.80;94.20;;;;;;4873734;28;20738;-77
2022/07/24 13:48:44;;;;;;;8.90;8.20;;;31.70;94.30;;;;;;4868699;28;20968;-77
2022/07/24 13:51:10;;;;;;;7.77;7.20;;;31.60;95.20;;;;;;4867310;28;20613;-77
2022/07/24 13:53:36;;;;;;;9.23;8.33;;;31.70;94.80;;;;;;4869019;28;20745;-77
2022/07/24 13:56:05;;;;;;;8.37;7.67;;;31.70;94.00;;;;;;4867143;28;20780;-77
2022/07/24 13:58:33;;;;;;;9.17;8.37;;;31.80;94.20;;;;;;4874180;28;20810;-77
2022/07/24 14:00:59;;;;;;;8.20;7.50;;;31.80;95.20;;;;;;4866267;28;21274;-77
2022/07/24 14:03:25;;;;;;;8.33;7.53;;;31.90;95.30;;;;;;4868186;28;20592;-78
2022/07/24 14:05:51;;;;;;;8.77;7.97;;;32.00;95.00;;;;;;4867578;28;20998;-77
2022/07/24 14:08:17;;;;;;;8.53;7.80;;;32.10;94.00;;;;;;4866325;28;20511;-76
2022/07/24 14:10:43;;;;;;;9.17;8.47;;;32.10;94.50;;;;;;4867783;28;20604;-78
2022/07/24 14:13:09;;;;;;;8.37;7.73;;;32.20;93.70;;;;;;4869516;28;20766;-79